sensor_id;sensor_type;location;lat;lon;timestamp;pressure;altitude;pressure_sealevel;temperature;humidity
40574;BME280;26283;49.020;8.644;2022-09-09T00:00:18;98827.09;;;23.68;52.02
40574;BME280;26283;49.020;8.644;2022-09-09T00:06:05;98833.53;;;23.63;51.95
40574;BME280;26283;49.020;8.644;2022-09-09T00:09:13;98826.91;;;23.64;51.92
40574;BME280;26283;49.020;8.644;2022-09-09T00:11:40;98829.97;;;23.63;51.96
40574;BME280;26283;49.020;8.644;2022-09-09T00:17:51;98849.53;;;23.61;52.17
40574;BME280;26283;49.020;8.644;2022-09-09T00:23:52;98842.41;;;23.60;52.02
40574;BME280;26283;49.020;8.644;2022-09-09T00:26:45;98836.25;;;23.54;52.27
40574;BME280;26283;49.020;8.644;2022-09-09T00:29:22;98826.87;;;23.55;52.24
40574;BME280;26283;49.020;8.644;2022-09-09T00:34:23;98824.44;;;23.54;52.14
40574;BME280;26283;49.020;8.644;2022-09-09T00:37:05;98821.19;;;23.52;52.22
40574;BME280;26283;49.020;8.644;2022-09-09T00:39:41;98813.53;;;23.49;52.22
40574;BME280;26283;49.020;8.644;2022-09-09T00:42:41;98835.75;;;23.52;52.33
40574;BME280;26283;49.020;8.644;2022-09-09T00:47:59;98841.53;;;23.51;52.21
40574;BME280;26283;49.020;8.644;2022-09-09T00:52:59;98835.53;;;23.49;52.05
40574;BME280;26283;49.020;8.644;2022-09-09T00:58:09;98831.47;;;23.46;52.22
40574;BME280;26283;49.020;8.644;2022-09-09T01:00:46;98829.53;;;23.47;52.22
40574;BME280;26283;49.020;8.644;2022-09-09T01:05:51;98834.53;;;23.45;52.25
40574;BME280;26283;49.020;8.644;2022-09-09T01:10:58;98841.16;;;23.44;52.37
40574;BME280;26283;49.020;8.644;2022-09-09T01:13:35;98838.72;;;23.42;52.30
40574;BME280;26283;49.020;8.644;2022-09-09T01:16:03;98839.03;;;23.41;52.45
40574;BME280;26283;49.020;8.644;2022-09-09T01:18:44;98846.12;;;23.42;52.29
40574;BME280;26283;49.020;8.644;2022-09-09T01:21:43;98842.87;;;23.40;52.46
40574;BME280;26283;49.020;8.644;2022-09-09T01:24:42;98853.88;;;23.40;52.47
40574;BME280;26283;49.020;8.644;2022-09-09T01:27:23;98860.50;;;23.39;52.46
40574;BME280;26283;49.020;8.644;2022-09-09T01:30:07;98858.09;;;23.37;52.24
40574;BME280;26283;49.020;8.644;2022-09-09T01:35:15;98861.97;;;23.36;52.38
40574;BME280;26283;49.020;8.644;2022-09-09T01:37:44;98866.66;;;23.36;52.34
40574;BME280;26283;49.020;8.644;2022-09-09T01:40:20;98861.47;;;23.34;52.30
40574;BME280;26283;49.020;8.644;2022-09-09T01:42:46;98862.59;;;23.33;52.36
40574;BME280;26283;49.020;8.644;2022-09-09T01:47:36;98883.78;;;23.33;52.33
40574;BME280;26283;49.020;8.644;2022-09-09T01:50:02;98866.78;;;23.31;52.36
40574;BME280;26283;49.020;8.644;2022-09-09T01:52:29;98866.78;;;23.31;52.40
40574;BME280;26283;49.020;8.644;2022-09-09T01:54:55;98866.78;;;23.31;52.42
40574;BME280;26283;49.020;8.644;2022-09-09T01:57:25;98864.34;;;23.29;52.37
40574;BME280;26283;49.020;8.644;2022-09-09T02:00:13;98859.16;;;23.28;52.40
40574;BME280;26283;49.020;8.644;2022-09-09T02:05:27;98865.78;;;23.27;52.38
40574;BME280;26283;49.020;8.644;2022-09-09T02:08:05;98881.44;;;23.26;52.40
40574;BME280;26283;49.020;8.644;2022-09-09T02:10:46;98857.84;;;23.25;52.44
40574;BME280;26283;49.020;8.644;2022-09-09T02:13:16;98857.03;;;23.24;52.39
40574;BME280;26283;49.020;8.644;2022-09-09T02:16:00;98844.41;;;23.23;52.40
40574;BME280;26283;49.020;8.644;2022-09-09T02:18:38;98847.16;;;23.23;52.57
40574;BME280;26283;49.020;8.644;2022-09-09T02:21:06;98839.22;;;23.22;52.45
40574;BME280;26283;49.020;8.644;2022-09-09T02:23:33;98835.66;;;23.21;52.43
40574;BME280;26283;49.020;8.644;2022-09-09T02:26:00;98834.84;;;23.21;52.46
40574;BME280;26283;49.020;8.644;2022-09-09T02:28:28;98834.84;;;23.21;52.48
40574;BME280;26283;49.020;8.644;2022-09-09T02:30:55;98831.56;;;23.19;52.49
40574;BME280;26283;49.020;8.644;2022-09-09T02:33:32;98830.78;;;23.18;52.45
40574;BME280;26283;49.020;8.644;2022-09-09T02:36:01;98825.28;;;23.18;52.60
40574;BME280;26283;49.020;8.644;2022-09-09T02:38:30;98830.78;;;23.18;52.52
40574;BME280;26283;49.020;8.644;2022-09-09T02:40:58;98825.28;;;23.18;52.54
40574;BME280;26283;49.020;8.644;2022-09-09T02:43:24;98829.13;;;23.17;52.54
40574;BME280;26283;49.020;8.644;2022-09-09T02:48:35;98816.56;;;23.16;52.86
40574;BME280;26283;49.020;8.644;2022-09-09T02:51:13;98814.94;;;23.15;52.77
40574;BME280;26283;49.020;8.644;2022-09-09T02:54:02;98806.69;;;23.15;52.77
40574;BME280;26283;49.020;8.644;2022-09-09T02:56:32;98796.00;;;23.14;52.73
40574;BME280;26283;49.020;8.644;2022-09-09T02:58:59;98799.88;;;23.13;52.70
40574;BME280;26283;49.020;8.644;2022-09-09T03:01:24;98810.03;;;23.12;52.72
40574;BME280;26283;49.020;8.644;2022-09-09T03:03:50;98804.56;;;23.12;52.75
40574;BME280;26283;49.020;8.644;2022-09-09T03:06:15;98811.97;;;23.12;52.78
40574;BME280;26283;49.020;8.644;2022-09-09T03:08:41;98813.09;;;23.11;52.79
40574;BME280;26283;49.020;8.644;2022-09-09T03:11:07;98816.16;;;23.09;52.87
40574;BME280;26283;49.020;8.644;2022-09-09T03:13:34;98811.78;;;23.08;53.00
40574;BME280;26283;49.020;8.644;2022-09-09T03:15:59;98809.84;;;23.09;53.02
40574;BME280;26283;49.020;8.644;2022-09-09T03:18:25;98817.28;;;23.08;52.97
40574;BME280;26283;49.020;8.644;2022-09-09T03:20:50;98820.03;;;23.08;52.96
40574;BME280;26283;49.020;8.644;2022-09-09T03:23:16;98816.47;;;23.08;52.91
40574;BME280;26283;49.020;8.644;2022-09-09T03:25:50;98813.72;;;23.08;52.87
40574;BME280;26283;49.020;8.644;2022-09-09T03:28:17;98812.09;;;23.07;53.12
40574;BME280;26283;49.020;8.644;2022-09-09T03:30:42;98807.72;;;23.06;53.02
40574;BME280;26283;49.020;8.644;2022-09-09T03:33:08;98810.47;;;23.06;52.96
40574;BME280;26283;49.020;8.644;2022-09-09T03:35:33;98815.16;;;23.05;53.01
40574;BME280;26283;49.020;8.644;2022-09-09T03:37:58;98821.47;;;23.06;53.04
40574;BME280;26283;49.020;8.644;2022-09-09T03:40:26;98814.66;;;23.03;53.08
40574;BME280;26283;49.020;8.644;2022-09-09T03:42:51;98822.91;;;23.03;53.08
40574;BME280;26283;49.020;8.644;2022-09-09T03:45:16;98828.41;;;23.03;53.12
40574;BME280;26283;49.020;8.644;2022-09-09T03:47:42;98827.59;;;23.03;53.14
40574;BME280;26283;49.020;8.644;2022-09-09T03:50:08;98828.69;;;23.02;53.24
40574;BME280;26283;49.020;8.644;2022-09-09T03:52:39;98824.31;;;23.01;53.29
40574;BME280;26283;49.020;8.644;2022-09-09T03:55:06;98821.56;;;23.01;53.35
40574;BME280;26283;49.020;8.644;2022-09-09T03:57:32;98819.63;;;23.01;53.26
40574;BME280;26283;49.020;8.644;2022-09-09T04:00:04;98827.06;;;23.01;53.32
40574;BME280;26283;49.020;8.644;2022-09-09T04:02:30;98828.81;;;22.97;53.30
40574;BME280;26283;49.020;8.644;2022-09-09T04:04:55;98824.12;;;22.97;53.31
40574;BME280;26283;49.020;8.644;2022-09-09T04:07:21;98830.44;;;22.98;53.38
40574;BME280;26283;49.020;8.644;2022-09-09T04:09:46;98822.50;;;22.96;53.44
40574;BME280;26283;49.020;8.644;2022-09-09T04:12:12;98832.22;;;22.94;53.39
40574;BME280;26283;49.020;8.644;2022-09-09T04:14:38;98831.88;;;22.95;53.35
40574;BME280;26283;49.020;8.644;2022-09-09T04:17:04;98823.16;;;22.93;53.41
40574;BME280;26283;49.020;8.644;2022-09-09T04:19:31;98829.47;;;22.94;53.40
40574;BME280;26283;49.020;8.644;2022-09-09T04:21:57;98828.66;;;22.93;53.40
40574;BME280;26283;49.020;8.644;2022-09-09T04:24:23;98827.84;;;22.93;53.42
40574;BME280;26283;49.020;8.644;2022-09-09T04:26:48;98836.88;;;22.93;53.42
40574;BME280;26283;49.020;8.644;2022-09-09T04:29:14;98837.19;;;22.92;53.45
40574;BME280;26283;49.020;8.644;2022-09-09T04:31:39;98841.06;;;22.90;53.42
40574;BME280;26283;49.020;8.644;2022-09-09T04:34:08;98845.75;;;22.90;53.39
40574;BME280;26283;49.020;8.644;2022-09-09T04:36:33;98844.94;;;22.89;53.47
40574;BME280;26283;49.020;8.644;2022-09-09T04:38:59;98843.31;;;22.88;53.44
40574;BME280;26283;49.020;8.644;2022-09-09T04:41:25;98850.44;;;22.89;53.48
40574;BME280;26283;49.020;8.644;2022-09-09T04:43:50;98857.03;;;22.88;53.45
40574;BME280;26283;49.020;8.644;2022-09-09T04:46:19;98850.75;;;22.88;53.48
40574;BME280;26283;49.020;8.644;2022-09-09T04:48:44;98851.03;;;22.86;53.54
40574;BME280;26283;49.020;8.644;2022-09-09T04:51:13;98854.91;;;22.85;53.57
40574;BME280;26283;49.020;8.644;2022-09-09T04:53:38;98853.28;;;22.84;53.59
40574;BME280;26283;49.020;8.644;2022-09-09T04:58:31;98864.28;;;22.84;53.60
40574;BME280;26283;49.020;8.644;2022-09-09T05:01:04;98857.16;;;22.83;53.65
40574;BME280;26283;49.020;8.644;2022-09-09T05:03:30;98864.59;;;22.83;53.76
40574;BME280;26283;49.020;8.644;2022-09-09T05:06:11;98864.87;;;22.81;53.64
40574;BME280;26283;49.020;8.644;2022-09-09T05:08:38;98871.50;;;22.80;53.70
40574;BME280;26283;49.020;8.644;2022-09-09T05:11:34;98873.44;;;22.80;53.61
40574;BME280;26283;49.020;8.644;2022-09-09T05:14:03;98870.69;;;22.80;53.91
40574;BME280;26283;49.020;8.644;2022-09-09T05:16:29;98876.50;;;22.78;53.68
40574;BME280;26283;49.020;8.644;2022-09-09T05:18:55;98870.19;;;22.78;53.71
40574;BME280;26283;49.020;8.644;2022-09-09T05:21:22;98879.50;;;22.77;53.75
40574;BME280;26283;49.020;8.644;2022-09-09T05:23:48;98884.19;;;22.76;53.78
40574;BME280;26283;49.020;8.644;2022-09-09T05:26:16;98878.69;;;22.76;53.79
40574;BME280;26283;49.020;8.644;2022-09-09T05:28:41;98881.75;;;22.75;53.82
40574;BME280;26283;49.020;8.644;2022-09-09T05:31:09;98885.31;;;22.75;53.84
40574;BME280;26283;49.020;8.644;2022-09-09T05:33:36;98890.00;;;22.75;53.86
40574;BME280;26283;49.020;8.644;2022-09-09T05:36:03;98893.84;;;22.74;53.92
40574;BME280;26283;49.020;8.644;2022-09-09T05:38:31;98888.34;;;22.74;53.91
40574;BME280;26283;49.020;8.644;2022-09-09T05:40:57;98888.69;;;22.72;53.94
40574;BME280;26283;49.020;8.644;2022-09-09T05:43:24;98890.63;;;22.72;53.93
40574;BME280;26283;49.020;8.644;2022-09-09T05:45:59;98893.38;;;22.72;53.96
40574;BME280;26283;49.020;8.644;2022-09-09T05:48:30;98889.81;;;22.71;54.09
40574;BME280;26283;49.020;8.644;2022-09-09T05:50:55;98891.75;;;22.71;54.02
40574;BME280;26283;49.020;8.644;2022-09-09T05:53:21;98895.63;;;22.70;53.98
40574;BME280;26283;49.020;8.644;2022-09-09T05:55:46;98888.50;;;22.69;53.97
40574;BME280;26283;49.020;8.644;2022-09-09T05:58:13;98888.50;;;22.69;53.97
40574;BME280;26283;49.020;8.644;2022-09-09T06:00:39;98887.69;;;22.68;53.97
40574;BME280;26283;49.020;8.644;2022-09-09T06:03:05;98889.63;;;22.68;53.96
40574;BME280;26283;49.020;8.644;2022-09-09T06:05:30;98893.47;;;22.67;53.95
40574;BME280;26283;49.020;8.644;2022-09-09T06:07:55;98894.59;;;22.66;53.93
40574;BME280;26283;49.020;8.644;2022-09-09T06:10:21;98890.72;;;22.67;53.97
40574;BME280;26283;49.020;8.644;2022-09-09T06:12:47;98895.72;;;22.65;54.08
40574;BME280;26283;49.020;8.644;2022-09-09T06:15:12;98898.47;;;22.65;54.07
40574;BME280;26283;49.020;8.644;2022-09-09T06:17:38;98900.41;;;22.64;54.12
40574;BME280;26283;49.020;8.644;2022-09-09T06:20:04;98904.25;;;22.63;54.13
40574;BME280;26283;49.020;8.644;2022-09-09T06:22:30;98904.25;;;22.63;54.15
40574;BME280;26283;49.020;8.644;2022-09-09T06:24:55;98906.19;;;22.63;54.17
40574;BME280;26283;49.020;8.644;2022-09-09T06:27:20;98900.69;;;22.63;54.15
40574;BME280;26283;49.020;8.644;2022-09-09T06:29:46;98904.56;;;22.62;54.17
40574;BME280;26283;49.020;8.644;2022-09-09T06:32:11;98904.56;;;22.62;54.14
40574;BME280;26283;49.020;8.644;2022-09-09T06:34:37;98901.81;;;22.62;54.08
40574;BME280;26283;49.020;8.644;2022-09-09T06:37:02;98905.69;;;22.61;54.12
40574;BME280;26283;49.020;8.644;2022-09-09T06:39:27;98906.78;;;22.60;54.08
40574;BME280;26283;49.020;8.644;2022-09-09T06:41:53;98923.28;;;22.60;54.16
40574;BME280;26283;49.020;8.644;2022-09-09T06:44:19;98932.31;;;22.60;54.38
40574;BME280;26283;49.020;8.644;2022-09-09T06:46:44;98927.94;;;22.59;54.46
40574;BME280;26283;49.020;8.644;2022-09-09T06:49:13;98930.69;;;22.59;54.54
40574;BME280;26283;49.020;8.644;2022-09-09T06:51:38;98922.47;;;22.59;54.63
40574;BME280;26283;49.020;8.644;2022-09-09T06:54:08;98926.31;;;22.58;54.66
40574;BME280;26283;49.020;8.644;2022-09-09T06:56:38;98923.56;;;22.58;54.69
40574;BME280;26283;49.020;8.644;2022-09-09T06:59:07;98920.03;;;22.57;54.74
40574;BME280;26283;49.020;8.644;2022-09-09T07:01:36;98923.56;;;22.58;54.75
40574;BME280;26283;49.020;8.644;2022-09-09T07:04:03;98923.88;;;22.56;54.79
40574;BME280;26283;49.020;8.644;2022-09-09T07:06:36;98931.00;;;22.57;54.79
40574;BME280;26283;49.020;8.644;2022-09-09T07:09:04;98929.88;;;22.58;54.80
40574;BME280;26283;49.020;8.644;2022-09-09T07:11:32;98936.19;;;22.59;54.81
40574;BME280;26283;49.020;8.644;2022-09-09T07:13:59;98931.50;;;22.60;54.84
40574;BME280;26283;49.020;8.644;2022-09-09T07:16:25;98932.63;;;22.58;54.85
40574;BME280;26283;49.020;8.644;2022-09-09T07:18:53;98929.88;;;22.58;54.86
40574;BME280;26283;49.020;8.644;2022-09-09T07:21:20;98924.41;;;22.58;54.84
40574;BME280;26283;49.020;8.644;2022-09-09T07:23:46;98918.91;;;22.58;54.86
40574;BME280;26283;49.020;8.644;2022-09-09T07:26:15;98918.59;;;22.60;54.86
40574;BME280;26283;49.020;8.644;2022-09-09T07:28:41;98915.03;;;22.60;54.87
40574;BME280;26283;49.020;8.644;2022-09-09T07:31:08;98920.53;;;22.60;54.87
40574;BME280;26283;49.020;8.644;2022-09-09T07:33:38;98924.09;;;22.60;54.87
40574;BME280;26283;49.020;8.644;2022-09-09T07:36:09;98926.53;;;22.62;54.86
40574;BME280;26283;49.020;8.644;2022-09-09T07:38:55;98925.72;;;22.61;54.88
40574;BME280;26283;49.020;8.644;2022-09-09T07:41:27;98942.19;;;22.61;54.94
40574;BME280;26283;49.020;8.644;2022-09-09T07:43:53;98935.59;;;22.62;54.86
40574;BME280;26283;49.020;8.644;2022-09-09T07:46:20;98938.34;;;22.62;54.84
40574;BME280;26283;49.020;8.644;2022-09-09T07:48:48;98943.81;;;22.62;54.83
40574;BME280;26283;49.020;8.644;2022-09-09T07:51:17;98939.97;;;22.63;54.82
40574;BME280;26283;49.020;8.644;2022-09-09T07:53:45;98935.28;;;22.64;54.81
40574;BME280;26283;49.020;8.644;2022-09-09T07:56:13;98941.59;;;22.64;54.81
40574;BME280;26283;49.020;8.644;2022-09-09T07:58:39;98936.09;;;22.64;54.81
40574;BME280;26283;49.020;8.644;2022-09-09T08:01:17;98931.41;;;22.65;54.79
40574;BME280;26283;49.020;8.644;2022-09-09T08:03:44;98925.94;;;22.65;54.85
40574;BME280;26283;49.020;8.644;2022-09-09T08:06:10;98933.03;;;22.66;54.80
40574;BME280;26283;49.020;8.644;2022-09-09T08:08:37;98938.53;;;22.66;54.78
40574;BME280;26283;49.020;8.644;2022-09-09T08:11:08;98941.78;;;22.68;54.75
40574;BME280;26283;49.020;8.644;2022-09-09T08:13:38;98941.78;;;22.68;54.75
40574;BME280;26283;49.020;8.644;2022-09-09T08:18:33;98937.94;;;22.69;54.73
40574;BME280;26283;49.020;8.644;2022-09-09T08:21:14;98934.06;;;22.70;54.69
40574;BME280;26283;49.020;8.644;2022-09-09T08:23:43;98943.44;;;22.69;54.67
40574;BME280;26283;49.020;8.644;2022-09-09T08:26:18;98941.19;;;22.71;54.66
40574;BME280;26283;49.020;8.644;2022-09-09T08:28:49;98937.31;;;22.72;54.67
40574;BME280;26283;49.020;8.644;2022-09-09T08:31:29;98943.63;;;22.72;54.62
40574;BME280;26283;49.020;8.644;2022-09-09T08:33:57;98938.94;;;22.73;54.61
40574;BME280;26283;49.020;8.644;2022-09-09T08:36:26;98941.69;;;22.73;54.54
40574;BME280;26283;49.020;8.644;2022-09-09T08:38:54;98947.19;;;22.73;54.51
40574;BME280;26283;49.020;8.644;2022-09-09T08:41:50;98950.41;;;22.75;54.48
40574;BME280;26283;49.020;8.644;2022-09-09T08:47:09;98954.53;;;22.77;54.42
40574;BME280;26283;49.020;8.644;2022-09-09T08:49:53;98963.56;;;22.78;54.40
40574;BME280;26283;49.020;8.644;2022-09-09T08:52:30;98992.69;;;22.79;54.38
40574;BME280;26283;49.020;8.644;2022-09-09T08:55:03;98990.75;;;22.79;54.38
40574;BME280;26283;49.020;8.644;2022-09-09T08:57:32;98981.69;;;22.79;54.37
40574;BME280;26283;49.020;8.644;2022-09-09T08:59:58;98984.94;;;22.81;54.34
40574;BME280;26283;49.020;8.644;2022-09-09T09:05:18;98975.59;;;22.82;54.32
40574;BME280;26283;49.020;8.644;2022-09-09T09:10:49;98963.47;;;22.83;54.29
40574;BME280;26283;49.020;8.644;2022-09-09T09:13:19;98970.31;;;22.85;54.22
40574;BME280;26283;49.020;8.644;2022-09-09T09:15:54;98977.44;;;22.86;54.21
40574;BME280;26283;49.020;8.644;2022-09-09T09:18:21;98974.38;;;22.88;54.21
40574;BME280;26283;49.020;8.644;2022-09-09T09:20:51;98965.00;;;22.89;54.16
40574;BME280;26283;49.020;8.644;2022-09-09T09:23:23;98965.53;;;22.91;54.14
40574;BME280;26283;49.020;8.644;2022-09-09T09:25:50;98968.28;;;22.91;54.11
40574;BME280;26283;49.020;8.644;2022-09-09T09:28:23;98960.53;;;22.93;54.07
40574;BME280;26283;49.020;8.644;2022-09-09T09:30:56;98955.53;;;22.95;54.05
40574;BME280;26283;49.020;8.644;2022-09-09T09:35:52;98950.22;;;22.99;54.00
40574;BME280;26283;49.020;8.644;2022-09-09T09:38:26;98940.87;;;23.00;53.99
40574;BME280;26283;49.020;8.644;2022-09-09T09:40:56;98938.62;;;23.02;53.98
40574;BME280;26283;49.020;8.644;2022-09-09T09:43:34;98950.94;;;23.04;53.93
40574;BME280;26283;49.020;8.644;2022-09-09T09:46:00;98952.56;;;23.05;53.93
40574;BME280;26283;49.020;8.644;2022-09-09T09:48:28;98957.75;;;23.07;53.91
40574;BME280;26283;49.020;8.644;2022-09-09T09:51:02;98960.19;;;23.08;53.88
40574;BME280;26283;49.020;8.644;2022-09-09T09:53:31;98959.09;;;23.09;53.84
40574;BME280;26283;49.020;8.644;2022-09-09T09:56:03;98955.22;;;23.10;53.82
40574;BME280;26283;49.020;8.644;2022-09-09T09:58:38;98951.34;;;23.11;53.80
40574;BME280;26283;49.020;8.644;2022-09-09T10:01:29;98953.78;;;23.13;53.78
40574;BME280;26283;49.020;8.644;2022-09-09T10:04:16;98946.34;;;23.13;53.74
40574;BME280;26283;49.020;8.644;2022-09-09T10:06:44;98948.78;;;23.15;53.72
40574;BME280;26283;49.020;8.644;2022-09-09T10:09:25;98946.88;;;23.15;53.74
40574;BME280;26283;49.020;8.644;2022-09-09T10:31:19;98949.16;;;23.22;53.55
40574;BME280;26283;49.020;8.644;2022-09-09T10:36:40;98936.75;;;23.24;53.49
40574;BME280;26283;49.020;8.644;2022-09-09T10:39:40;98940.31;;;23.25;53.48
40574;BME280;26283;49.020;8.644;2022-09-09T10:42:09;98943.56;;;23.27;53.44
40574;BME280;26283;49.020;8.644;2022-09-09T10:44:50;98938.88;;;23.28;53.37
40574;BME280;26283;49.020;8.644;2022-09-09T10:53:00;98948.13;;;23.32;53.24
40574;BME280;26283;49.020;8.644;2022-09-09T10:55:41;98942.63;;;23.32;53.21
40574;BME280;26283;49.020;8.644;2022-09-09T10:58:12;98942.84;;;23.35;53.16
40574;BME280;26283;49.020;8.644;2022-09-09T11:00:47;98953.84;;;23.35;53.12
40574;BME280;26283;49.020;8.644;2022-09-09T11:03:21;98964.53;;;23.37;53.08
40574;BME280;26283;49.020;8.644;2022-09-09T11:05:53;98963.87;;;23.40;53.03
40574;BME280;26283;49.020;8.644;2022-09-09T11:08:23;98961.12;;;23.40;53.01
40574;BME280;26283;49.020;8.644;2022-09-09T11:18:36;98967.66;;;23.44;52.84
40574;BME280;26283;49.020;8.644;2022-09-09T11:21:10;98961.03;;;23.45;52.79
40574;BME280;26283;49.020;8.644;2022-09-09T11:23:44;98961.84;;;23.45;52.77
40574;BME280;26283;49.020;8.644;2022-09-09T11:26:51;98965.41;;;23.46;52.74
40574;BME280;26283;49.020;8.644;2022-09-09T11:32:22;98954.91;;;23.48;52.67
40574;BME280;26283;49.020;8.644;2022-09-09T11:40:24;98961.72;;;23.50;52.59
40574;BME280;26283;49.020;8.644;2022-09-09T11:43:11;98945.22;;;23.50;52.56
40574;BME280;26283;49.020;8.644;2022-09-09T11:45:39;98948.78;;;23.51;52.54
40574;BME280;26283;49.020;8.644;2022-09-09T11:48:22;98944.94;;;23.52;52.52
40574;BME280;26283;49.020;8.644;2022-09-09T11:50:58;98940.25;;;23.52;52.49
40574;BME280;26283;49.020;8.644;2022-09-09T11:53:24;98932.81;;;23.53;52.46
40574;BME280;26283;49.020;8.644;2022-09-09T11:58:27;98911.31;;;23.55;52.40
40574;BME280;26283;49.020;8.644;2022-09-09T12:00:58;98912.94;;;23.56;52.38
40574;BME280;26283;49.020;8.644;2022-09-09T12:03:48;98908.56;;;23.55;52.38
40574;BME280;26283;49.020;8.644;2022-09-09T12:06:28;98898.06;;;23.57;52.37
40574;BME280;26283;49.020;8.644;2022-09-09T12:09:06;98903.25;;;23.58;52.34
40574;BME280;26283;49.020;8.644;2022-09-09T12:11:33;98907.62;;;23.60;52.29
40574;BME280;26283;49.020;8.644;2022-09-09T12:13:59;98896.28;;;23.61;52.30
40574;BME280;26283;49.020;8.644;2022-09-09T12:16:36;98899.84;;;23.62;52.30
40574;BME280;26283;49.020;8.644;2022-09-09T12:19:22;98898.72;;;23.63;52.28
40574;BME280;26283;49.020;8.644;2022-09-09T12:21:54;98907.81;;;23.63;52.27
40574;BME280;26283;49.020;8.644;2022-09-09T12:24:51;98905.84;;;23.64;52.27
40574;BME280;26283;49.020;8.644;2022-09-09T12:27:31;98908.31;;;23.65;52.24
40574;BME280;26283;49.020;8.644;2022-09-09T12:30:12;98898.94;;;23.66;52.21
40574;BME280;26283;49.020;8.644;2022-09-09T12:32:39;98905.25;;;23.67;52.20
40574;BME280;26283;49.020;8.644;2022-09-09T12:40:22;98886.47;;;23.69;52.17
40574;BME280;26283;49.020;8.644;2022-09-09T12:42:48;98879.03;;;23.69;52.16
40574;BME280;26283;49.020;8.644;2022-09-09T12:45:25;98879.84;;;23.70;52.15
40574;BME280;26283;49.020;8.644;2022-09-09T12:47:57;98879.03;;;23.69;52.13
40574;BME280;26283;49.020;8.644;2022-09-09T12:50:26;98888.63;;;23.72;52.14
40574;BME280;26283;49.020;8.644;2022-09-09T12:53:02;98889.44;;;23.72;52.11
40574;BME280;26283;49.020;8.644;2022-09-09T12:55:31;98885.56;;;23.73;52.09
40574;BME280;26283;49.020;8.644;2022-09-09T12:57:59;98889.94;;;23.74;52.08
40574;BME280;26283;49.020;8.644;2022-09-09T13:00:26;98891.56;;;23.75;52.07
40574;BME280;26283;49.020;8.644;2022-09-09T13:02:56;98886.88;;;23.76;52.04
40574;BME280;26283;49.020;8.644;2022-09-09T13:05:24;98890.44;;;23.76;52.05
40574;BME280;26283;49.020;8.644;2022-09-09T13:07:50;98898.38;;;23.78;52.00
40574;BME280;26283;49.020;8.644;2022-09-09T13:10:28;98894.81;;;23.77;52.02
40574;BME280;26283;49.020;8.644;2022-09-09T13:12:55;98894.00;;;23.77;52.03
40574;BME280;26283;49.020;8.644;2022-09-09T13:15:22;98904.69;;;23.78;52.01
40574;BME280;26283;49.020;8.644;2022-09-09T13:17:54;98900.81;;;23.79;52.01
40574;BME280;26283;49.020;8.644;2022-09-09T13:20:22;98900.81;;;23.79;52.00
40574;BME280;26283;49.020;8.644;2022-09-09T13:22:49;98896.13;;;23.80;52.00
40574;BME280;26283;49.020;8.644;2022-09-09T13:25:27;98892.56;;;23.79;52.00
40574;BME280;26283;49.020;8.644;2022-09-09T13:28:01;98887.06;;;23.79;51.98
40574;BME280;26283;49.020;8.644;2022-09-09T13:30:32;98895.00;;;23.81;51.96
40574;BME280;26283;49.020;8.644;2022-09-09T13:33:18;98891.44;;;23.80;51.95
40574;BME280;26283;49.020;8.644;2022-09-09T13:36:05;98891.09;;;23.82;51.93
40574;BME280;26283;49.020;8.644;2022-09-09T13:41:19;98896.28;;;23.83;51.92
40574;BME280;26283;49.020;8.644;2022-09-09T13:43:47;98892.72;;;23.83;51.91
40574;BME280;26283;49.020;8.644;2022-09-09T13:48:58;98883.34;;;23.84;51.90
40574;BME280;26283;49.020;8.644;2022-09-09T13:51:33;98883.34;;;23.84;51.90
40574;BME280;26283;49.020;8.644;2022-09-09T13:53:59;98883.03;;;23.85;51.88
40574;BME280;26283;49.020;8.644;2022-09-09T13:56:25;98866.50;;;23.85;51.87
40574;BME280;26283;49.020;8.644;2022-09-09T13:58:51;98863.44;;;23.87;51.88
40574;BME280;26283;49.020;8.644;2022-09-09T14:01:16;98869.75;;;23.87;51.87
40574;BME280;26283;49.020;8.644;2022-09-09T14:03:41;98860.38;;;23.88;51.86
40574;BME280;26283;49.020;8.644;2022-09-09T14:06:09;98862.00;;;23.89;51.86
40574;BME280;26283;49.020;8.644;2022-09-09T14:08:35;98863.63;;;23.90;51.85
40574;BME280;26283;49.020;8.644;2022-09-09T14:11:03;98852.63;;;23.90;51.86
40574;BME280;26283;49.020;8.644;2022-09-09T14:13:29;98848.75;;;23.91;51.84
40574;BME280;26283;49.020;8.644;2022-09-09T14:15:54;98853.13;;;23.92;51.83
40574;BME280;26283;49.020;8.644;2022-09-09T14:18:19;98851.50;;;23.91;51.80
40574;BME280;26283;49.020;8.644;2022-09-09T14:20:47;98847.31;;;23.94;51.81
40574;BME280;26283;49.020;8.644;2022-09-09T14:23:13;98858.31;;;23.94;51.81
40574;BME280;26283;49.020;8.644;2022-09-09T14:25:43;98859.13;;;23.95;51.80
40574;BME280;26283;49.020;8.644;2022-09-09T14:28:09;98860.75;;;23.96;51.82
40574;BME280;26283;49.020;8.644;2022-09-09T14:30:37;98865.13;;;23.97;51.81
40574;BME280;26283;49.020;8.644;2022-09-09T14:33:03;98859.31;;;23.98;51.81
40574;BME280;26283;49.020;8.644;2022-09-09T14:35:28;98872.75;;;24.00;51.82
40574;BME280;26283;49.020;8.644;2022-09-09T14:37:53;98877.12;;;24.01;51.79
40574;BME280;26283;49.020;8.644;2022-09-09T14:40:20;98867.25;;;24.00;51.77
40574;BME280;26283;49.020;8.644;2022-09-09T14:42:45;98874.38;;;24.01;51.79
40574;BME280;26283;49.020;8.644;2022-09-09T14:45:11;98887.84;;;24.02;51.79
40574;BME280;26283;49.020;8.644;2022-09-09T14:47:36;98876.00;;;24.02;51.76
40574;BME280;26283;49.020;8.644;2022-09-09T14:50:03;98883.13;;;24.03;51.77
40574;BME280;26283;49.020;8.644;2022-09-09T14:52:30;98890.59;;;24.02;51.77
40574;BME280;26283;49.020;8.644;2022-09-09T14:54:55;98894.97;;;24.03;51.75
40574;BME280;26283;49.020;8.644;2022-09-09T14:57:21;98888.63;;;24.03;51.73
40574;BME280;26283;49.020;8.644;2022-09-09T14:59:46;98895.75;;;24.04;51.75
40574;BME280;26283;49.020;8.644;2022-09-09T15:02:12;98877.62;;;24.03;51.72
40574;BME280;26283;49.020;8.644;2022-09-09T15:04:39;98882.78;;;24.04;51.71
40574;BME280;26283;49.020;8.644;2022-09-09T15:07:04;98877.62;;;24.03;51.69